Time;durP1;ratioP1;P1;durP2;ratioP2;P2;SDS_P1;SDS_P2;PMS_P1;PMS_P2;Temp;Humidity;BMP_temperature;BMP_pressure;BME280_temperature;BME280_humidity;BME280_pressure;Samples;Min_cycle;Max_cycle;Signal;HPM_P1;HPM_P2
2023/01/25 00:00:01;;;;;;;10.97;9.97;;;;;;;1.83;79.93;103090.13;5017731;28;20211;-81
2023/01/25 00:02:28;;;;;;;10.40;9.43;;;;;;;1.87;79.72;103078.31;5017200;28;20766;-81
2023/01/25 00:04:55;;;;;;;10.43;9.43;;;;;;;1.81;80.19;103091.72;5017519;28;20768;-82
2023/01/25 00:07:21;;;;;;;11.00;10.00;;;;;;;1.83;80.17;103078.94;5017335;28;20207;-81
2023/01/25 00:09:49;;;;;;;10.33;9.20;;;;;;;1.82;80.47;103072.88;5036622;28;20632;-82
2023/01/25 00:12:16;;;;;;;9.87;8.87;;;;;;;1.86;79.57;103064.53;5031616;28;20199;-80
2023/01/25 00:14:42;;;;;;;9.03;8.23;;;;;;;1.82;79.19;103079.72;5034911;28;20319;-80
2023/01/25 00:17:08;;;;;;;9.77;8.87;;;;;;;1.84;80.10;103076.44;5037671;28;20202;-80
2023/01/25 00:19:35;;;;;;;9.50;8.60;;;;;;;1.85;79.48;103080.81;5036630;28;20260;-80
2023/01/25 00:22:01;;;;;;;9.17;8.37;;;;;;;1.89;79.35;103081.88;5035870;28;20226;-82
2023/01/25 00:24:28;;;;;;;8.00;7.30;;;;;;;1.78;79.02;103088.94;5036172;28;20630;-81
2023/01/25 00:26:55;;;;;;;8.67;7.87;;;;;;;1.78;79.92;103081.22;5036142;28;20681;-82
2023/01/25 00:29:22;;;;;;;9.70;8.90;;;;;;;1.78;80.20;103070.91;5037135;28;20222;-81
2023/01/25 00:31:58;;;;;;;12.17;9.17;;;;;;;1.75;80.08;103063.91;5037365;28;20233;-80
2023/01/25 00:34:49;;;;;;;8.73;8.00;;;;;;;1.78;80.01;103048.66;5031508;28;20220;-80
2023/01/25 00:37:23;;;;;;;8.13;7.33;;;;;;;1.78;80.64;103043.50;5015693;28;20617;-80
2023/01/25 00:39:50;;;;;;;7.67;6.97;;;;;;;1.82;79.67;103048.81;5037095;28;20234;-82
2023/01/25 00:42:19;;;;;;;8.37;7.60;;;;;;;1.74;79.92;103051.81;5037140;28;20707;-81
2023/01/25 00:44:46;;;;;;;7.23;6.53;;;;;;;1.79;80.13;103032.41;5039714;28;20207;-81
2023/01/25 00:47:13;;;;;;;7.17;6.57;;;;;;;1.68;80.64;103040.28;5037669;28;20202;-80
2023/01/25 00:49:41;;;;;;;7.67;6.97;;;;;;;1.63;79.73;103031.41;5036902;28;20819;-81
2023/01/25 00:52:08;;;;;;;7.73;6.93;;;;;;;1.65;80.35;103020.41;5033607;28;20199;-80
2023/01/25 00:54:35;;;;;;;7.83;7.13;;;;;;;1.65;80.75;103015.25;5033548;28;20203;-81
2023/01/25 00:57:01;;;;;;;7.60;6.90;;;;;;;1.69;80.57;103003.44;5035954;28;20725;-81
2023/01/25 00:59:29;;;;;;;8.33;7.53;;;;;;;1.73;80.76;103011.44;5035939;28;20219;-81
2023/01/25 01:01:56;;;;;;;7.83;7.13;;;;;;;1.76;79.65;103016.78;5035992;28;20230;-80
2023/01/25 01:04:23;;;;;;;8.87;8.03;;;;;;;1.70;79.60;103015.50;5035755;28;20264;-82
2023/01/25 01:06:51;;;;;;;8.87;8.07;;;;;;;1.64;80.10;103021.19;5034403;28;20212;-80
2023/01/25 01:09:18;;;;;;;8.50;7.77;;;;;;;1.57;80.38;103019.06;5028158;28;20226;-81
2023/01/25 01:11:45;;;;;;;8.53;7.83;;;;;;;1.64;80.33;103008.31;5032626;28;20272;-80
2023/01/25 01:14:12;;;;;;;7.90;7.20;;;;;;;1.63;80.43;103008.25;5034690;28;20210;-79
2023/01/25 01:16:40;;;;;;;8.13;7.33;;;;;;;1.58;80.70;103010.53;5033922;28;20202;-80
2023/01/25 01:19:06;;;;;;;7.33;6.63;;;;;;;1.56;81.81;102994.97;5043549;28;20252;-81
2023/01/25 01:21:33;;;;;;;7.23;6.53;;;;;;;1.55;81.07;102980.34;5045082;28;20229;-81
2023/01/25 01:23:59;;;;;;;7.80;7.00;;;;;;;1.59;80.85;102966.84;5042349;28;20194;-81
2023/01/25 01:26:26;;;;;;;7.27;6.57;;;;;;;1.60;80.97;102978.03;5036980;28;20223;-83
2023/01/25 01:28:52;;;;;;;7.00;6.40;;;;;;;1.53;81.26;102974.22;5037420;28;20256;-82
2023/01/25 01:31:21;;;;;;;7.60;6.90;;;;;;;1.46;81.68;102958.34;5033467;28;20434;-82
2023/01/25 01:33:50;;;;;;;7.27;6.57;;;;;;;1.52;82.27;102938.97;5033593;28;20675;-82
2023/01/25 01:36:18;;;;;;;7.83;7.03;;;;;;;1.59;82.15;102929.94;5028632;28;20206;-82
2023/01/25 01:38:45;;;;;;;7.10;6.43;;;;;;;1.57;81.49;102940.16;5032931;28;20637;-82
2023/01/25 01:41:12;;;;;;;7.37;6.77;;;;;;;1.56;81.78;102933.22;5033392;28;20674;-82
2023/01/25 01:43:38;;;;;;;8.37;7.57;;;;;;;1.57;82.22;102936.69;5033454;28;20277;-81
2023/01/25 01:46:09;;;;;;;7.30;6.60;;;;;;;1.48;82.19;102938.72;5033848;28;20206;-82
2023/01/25 01:48:41;;;;;;;8.03;7.23;;;;;;;1.53;82.15;102924.44;5033528;28;20720;-82
2023/01/25 01:51:16;;;;;;;7.07;6.37;;;;;;;1.54;82.31;102913.34;5033682;28;20220;-82
2023/01/25 01:53:46;;;;;;;7.40;6.80;;;;;;;1.44;83.04;102908.44;5027617;28;20205;-82
2023/01/25 01:56:17;;;;;;;7.67;7.00;;;;;;;1.44;83.15;102890.44;5033019;28;20206;-82
2023/01/25 01:58:46;;;;;;;7.53;6.73;;;;;;;1.45;82.74;102881.91;5033862;28;20296;-82
2023/01/25 02:01:12;;;;;;;7.30;6.70;;;;;;;1.47;82.81;102862.31;5033228;28;20207;-83
2023/01/25 02:03:40;;;;;;;7.17;6.47;;;;;;;1.42;83.25;102848.28;5033301;28;20277;-83
2023/01/25 02:06:13;;;;;;;8.20;7.43;;;;;;;1.44;83.04;102836.41;5027791;28;20286;-82
2023/01/25 02:08:41;;;;;;;8.33;7.60;;;;;;;1.44;83.38;102844.13;5034101;28;20218;-82
2023/01/25 02:11:09;;;;;;;8.13;7.33;;;;;;;1.43;84.04;102835.53;5033321;28;20209;-82
2023/01/25 02:13:36;;;;;;;7.00;6.20;;;;;;;1.47;83.25;102828.88;5033560;28;20202;-81
2023/01/25 02:16:03;;;;;;;6.40;5.80;;;;;;;1.47;83.45;102832.31;5033092;28;20267;-83
2023/01/25 02:18:30;;;;;;;6.20;5.60;;;;;;;1.50;83.77;102829.91;5032888;28;20259;-82
2023/01/25 02:20:59;;;;;;;6.47;5.87;;;;;;;1.51;83.32;102838.53;5032836;28;20218;-82
2023/01/25 02:23:33;;;;;;;5.90;5.40;;;;;;;1.54;83.86;102839.56;5033167;28;20289;-82
2023/01/25 02:26:03;;;;;;;6.20;5.60;;;;;;;1.53;83.53;102836.94;5032825;28;20267;-81
2023/01/25 02:28:34;;;;;;;6.87;6.17;;;;;;;1.46;83.61;102825.38;5032856;28;20275;-82
2023/01/25 02:31:01;;;;;;;7.17;6.30;;;;;;;1.50;84.00;102814.47;5032197;28;20206;-81
2023/01/25 02:33:28;;;;;;;6.63;5.67;;;;;;;1.49;83.66;102829.84;5018550;28;20200;-82
2023/01/25 02:36:00;;;;;;;7.07;6.37;;;;;;;1.50;83.87;102823.88;5032912;28;20194;-82
2023/01/25 02:38:29;;;;;;;7.53;6.83;;;;;;;1.48;84.40;102813.50;5032709;28;20262;-83
2023/01/25 02:41:00;;;;;;;7.23;6.53;;;;;;;1.41;84.01;102800.19;5033058;28;20577;-81
2023/01/25 02:43:32;;;;;;;7.73;7.00;;;;;;;1.50;84.63;102786.16;5032588;28;20225;-81
2023/01/25 02:46:09;;;;;;;6.57;5.87;;;;;;;1.52;83.84;102793.97;5032542;28;20633;-81
2023/01/25 02:48:36;;;;;;;7.87;7.17;;;;;;;1.46;84.59;102798.78;5032964;28;20289;-81
2023/01/25 02:51:03;;;;;;;6.50;5.10;;;;;;;1.50;84.24;102787.84;5035937;28;20252;-82
2023/01/25 02:53:29;;;;;;;6.83;6.13;;;;;;;1.55;84.26;102782.16;5022388;28;20278;-81
2023/01/25 02:55:55;;;;;;;5.70;5.20;;;;;;;1.56;84.40;102780.47;5036436;28;20672;-81
2023/01/25 02:58:22;;;;;;;6.87;6.27;;;;;;;1.49;84.14;102780.94;5035998;28;20307;-81
2023/01/25 03:00:49;;;;;;;6.73;6.10;;;;;;;1.50;84.68;102778.44;5036282;28;20261;-81
2023/01/25 03:03:16;;;;;;;6.90;6.20;;;;;;;1.52;84.89;102768.22;5036225;28;20704;-82
2023/01/25 03:05:43;;;;;;;7.90;6.83;;;;;;;1.48;85.89;102754.28;5036136;28;20215;-81
2023/01/25 03:08:10;;;;;;;8.10;6.20;;;;;;;1.50;85.18;102744.09;5036024;28;20649;-81
2023/01/25 03:10:36;;;;;;;6.93;6.23;;;;;;;1.46;86.06;102730.16;5036182;28;20260;-82
2023/01/25 03:13:03;;;;;;;7.40;6.60;;;;;;;1.45;85.63;102719.78;5035874;28;20206;-82
2023/01/25 03:15:29;;;;;;;7.10;6.30;;;;;;;1.50;85.71;102702.91;5035698;28;20202;-81
2023/01/25 03:17:57;;;;;;;7.00;6.03;;;;;;;1.51;85.87;102708.16;5022190;28;20304;-82
2023/01/25 03:20:23;;;;;;;6.90;5.97;;;;;;;1.47;85.59;102710.47;5035678;28;20252;-82
2023/01/25 03:22:49;;;;;;;6.77;6.10;;;;;;;1.47;85.65;102707.91;5035316;28;20226;-82
2023/01/25 03:25:16;;;;;;;6.40;5.80;;;;;;;1.48;85.18;102707.09;5029445;28;20260;-80
2023/01/25 03:27:42;;;;;;;7.40;6.60;;;;;;;1.51;85.76;102708.16;5033795;28;20636;-81
2023/01/25 03:30:10;;;;;;;7.20;6.50;;;;;;;1.49;85.83;102714.03;5036636;28;20233;-82
2023/01/25 03:32:36;;;;;;;8.60;6.80;;;;;;;1.48;85.53;102712.25;5036949;28;20198;-83
2023/01/25 03:35:05;;;;;;;6.80;6.10;;;;;;;1.48;85.25;102710.53;5034110;28;20585;-82
2023/01/25 03:37:32;;;;;;;7.07;6.43;;;;;;;1.52;85.91;102703.88;5036731;28;20206;-82
2023/01/25 03:39:59;;;;;;;6.77;6.07;;;;;;;1.51;85.26;102700.44;5036405;28;20206;-81
2023/01/25 03:42:26;;;;;;;7.77;6.43;;;;;;;1.48;85.24;102701.94;5035938;28;20222;-82
2023/01/25 03:44:52;;;;;;;6.80;6.07;;;;;;;1.42;85.32;102706.75;5036780;28;20265;-82
2023/01/25 03:47:18;;;;;;;7.10;6.40;;;;;;;1.45;85.84;102706.91;5036790;28;20206;-82
2023/01/25 03:49:45;;;;;;;6.83;6.23;;;;;;;1.48;85.37;102701.94;5038079;28;20321;-82
2023/01/25 03:52:12;;;;;;;7.40;6.30;;;;;;;1.45;86.49;102696.63;5035915;28;20213;-80
2023/01/25 03:54:39;;;;;;;6.90;6.30;;;;;;;1.37;86.45;102683.34;5035688;28;20206;-81
2023/01/25 03:57:05;;;;;;;7.30;6.60;;;;;;;1.31;86.36;102672.69;5037485;28;20207;-80
2023/01/25 03:59:32;;;;;;;7.40;6.70;;;;;;;1.30;87.31;102653.81;5037016;28;20226;-81
2023/01/25 04:01:58;;;;;;;8.00;6.60;;;;;;;1.35;87.54;102638.66;5037362;28;20256;-81
2023/01/25 04:04:24;;;;;;;7.70;6.83;;;;;;;1.29;87.14;102635.72;5029076;28;20758;-81
2023/01/25 04:06:51;;;;;;;10.33;7.67;;;;;;;1.31;87.81;102624.72;5037486;28;20203;-81
2023/01/25 04:09:19;;;;;;;8.17;7.30;;;;;;;1.33;87.53;102607.69;5037433;28;20715;-82
2023/01/25 04:11:45;;;;;;;7.67;6.87;;;;;;;1.37;87.96;102603.59;5037740;28;20738;-82
2023/01/25 04:14:11;;;;;;;8.10;7.30;;;;;;;1.36;88.61;102596.66;5037715;28;20202;-82
2023/01/25 04:16:38;;;;;;;7.07;6.37;;;;;;;1.42;88.41;102591.84;5038128;28;20206;-80
2023/01/25 04:19:04;;;;;;;9.67;7.23;;;;;;;1.41;88.38;102579.78;5037353;28;20230;-82
2023/01/25 04:21:31;;;;;;;7.93;7.17;;;;;;;1.42;88.54;102578.97;5037269;28;20206;-82
2023/01/25 04:23:57;;;;;;;8.77;7.50;;;;;;;1.42;87.95;102576.41;5031072;28;20248;-83
2023/01/25 04:26:25;;;;;;;8.90;7.37;;;;;;;1.44;88.28;102574.78;5037139;28;20277;-80
2023/01/25 04:28:51;;;;;;;8.37;7.57;;;;;;;1.41;88.88;102566.94;5037529;28;20769;-82
2023/01/25 04:31:18;;;;;;;9.90;7.47;;;;;;;1.36;89.43;102560.66;5034031;28;20211;-81
2023/01/25 04:33:44;;;;;;;8.27;7.33;;;;;;;1.41;88.84;102542.84;5036108;28;20232;-81
2023/01/25 04:36:10;;;;;;;8.43;7.53;;;;;;;1.45;89.08;102552.50;5036752;28;20232;-79
2023/01/25 04:38:37;;;;;;;8.40;7.53;;;;;;;1.47;88.26;102548.34;5036801;28;20304;-81
2023/01/25 04:41:04;;;;;;;8.90;7.97;;;;;;;1.37;88.53;102562.44;5037331;28;20213;-81
2023/01/25 04:43:31;;;;;;;9.23;7.90;;;;;;;1.39;88.27;102550.53;5037535;28;20272;-80
2023/01/25 04:46:01;;;;;;;11.90;8.50;;;;;;;1.34;88.93;102541.66;5036974;28;20260;-82
2023/01/25 04:48:27;;;;;;;9.90;8.07;;;;;;;1.32;89.22;102517.53;5032931;28;20276;-82
2023/01/25 04:50:53;;;;;;;9.70;7.87;;;;;;;1.34;89.53;102524.53;5037107;28;20206;-82
2023/01/25 04:53:20;;;;;;;9.77;7.53;;;;;;;1.38;89.01;102520.44;5037297;28;20202;-82
2023/01/25 04:55:47;;;;;;;10.20;8.70;;;;;;;1.35;88.96;102512.56;5037388;28;20256;-81
2023/01/25 04:58:14;;;;;;;9.60;8.60;;;;;;;1.27;90.25;102511.25;5037468;28;20234;-81
2023/01/25 05:00:42;;;;;;;10.10;8.80;;;;;;;1.31;90.13;102505.47;5037349;28;20210;-82
2023/01/25 05:03:08;;;;;;;9.63;8.63;;;;;;;1.31;90.65;102496.09;5037116;28;20222;-82
2023/01/25 05:05:34;;;;;;;9.37;8.47;;;;;;;1.36;89.78;102483.44;5037237;28;20675;-82
2023/01/25 05:08:01;;;;;;;10.43;9.33;;;;;;;1.25;89.84;102492.28;5036946;28;20230;-83
2023/01/25 05:10:27;;;;;;;10.37;9.23;;;;;;;1.21;90.25;102495.50;5037556;28;20210;-81
2023/01/25 05:12:54;;;;;;;10.67;8.77;;;;;;;1.30;90.61;102494.31;5036232;28;20210;-81
2023/01/25 05:15:20;;;;;;;10.60;8.97;;;;;;;1.31;91.14;102477.16;5035444;28;20206;-80
2023/01/25 05:17:48;;;;;;;9.53;7.87;;;;;;;1.36;90.44;102479.19;5036850;28;20203;-82
2023/01/25 05:20:14;;;;;;;10.70;8.97;;;;;;;1.37;90.11;102480.97;5037267;28;20229;-82
2023/01/25 05:22:41;;;;;;;10.27;8.53;;;;;;;1.37;90.30;102482.66;5037661;28;20207;-82
2023/01/25 05:26:59;;;;;;;11.23;9.30;;;;;;;1.41;89.88;102470.81;5025415;28;20214;-81
2023/01/25 05:27:53;;;;;;;11.33;10.07;;;;;;;1.33;90.63;102470.44;5036025;28;20233;-82
2023/01/25 05:30:20;;;;;;;9.90;8.90;;;;;;;1.32;90.11;102460.94;5036773;28;20264;-81
2023/01/25 05:32:48;;;;;;;10.13;9.13;;;;;;;1.41;89.98;102458.84;5042170;22;20261;-83
2023/01/25 05:35:15;;;;;;;10.73;9.63;;;;;;;1.38;90.71;102456.13;5013514;28;20309;-83
2023/01/25 05:37:41;;;;;;;11.07;9.83;;;;;;;1.41;90.27;102455.38;5010785;28;20260;-83
2023/01/25 05:40:08;;;;;;;11.00;8.80;;;;;;;1.41;90.35;102468.25;5025667;28;20272;-84
2023/01/25 05:42:35;;;;;;;12.97;10.40;;;;;;;1.44;90.42;102468.41;5034053;28;20222;-81
2023/01/25 05:45:01;;;;;;;11.40;10.20;;;;;;;1.41;90.86;102457.94;5033533;28;20280;-81
2023/01/25 05:47:27;;;;;;;11.20;10.10;;;;;;;1.36;90.27;102462.88;5033455;28;20738;-83
2023/01/25 05:49:55;;;;;;;18.67;10.90;;;;;;;1.34;91.04;102456.75;5032212;28;20209;-81
2023/01/25 05:52:22;;;;;;;11.13;9.63;;;;;;;1.38;90.79;102454.41;5033800;28;20233;-81
2023/01/25 05:54:48;;;;;;;11.53;10.33;;;;;;;1.38;90.00;102459.56;5033515;28;20714;-82
2023/01/25 05:57:15;;;;;;;11.00;9.90;;;;;;;1.45;89.90;102454.72;5033576;28;20634;-80
2023/01/25 05:59:41;;;;;;;10.67;9.57;;;;;;;1.47;89.65;102466.00;5034214;28;20202;-83
2023/01/25 06:02:08;;;;;;;12.27;9.67;;;;;;;1.42;90.45;102477.75;5032716;28;20224;-83
2023/01/25 06:04:34;;;;;;;12.33;10.87;;;;;;;1.39;91.07;102461.34;5032690;28;20226;-83
2023/01/25 06:07:02;;;;;;;10.63;9.00;;;;;;;1.46;90.75;102456.50;5032954;28;20561;-83
2023/01/25 06:09:28;;;;;;;10.43;9.33;;;;;;;1.46;89.88;102451.38;5024695;28;20215;-83
2023/01/25 06:11:54;;;;;;;11.10;10.00;;;;;;;1.46;89.33;102459.09;5016335;28;20229;-83
2023/01/25 06:14:22;;;;;;;11.97;10.27;;;;;;;1.47;89.55;102461.75;5032815;28;20276;-83
2023/01/25 06:16:48;;;;;;;11.40;9.20;;;;;;;1.44;90.03;102468.41;5032893;28;20210;-83
2023/01/25 06:19:15;;;;;;;10.33;9.30;;;;;;;1.44;90.42;102460.69;5032738;28;20208;-83
2023/01/25 06:21:41;;;;;;;8.83;7.93;;;;;;;1.17;90.58;102468.78;5031590;28;20214;-83
2023/01/25 06:24:09;;;;;;;9.77;8.87;;;;;;;1.26;90.01;102458.94;5035018;28;20222;-82
2023/01/25 06:26:35;;;;;;;11.33;10.13;;;;;;;1.31;90.81;102454.94;5037079;28;20206;-83
2023/01/25 06:29:04;;;;;;;11.70;9.97;;;;;;;1.38;90.33;102451.84;5036474;28;20210;-83
2023/01/25 06:31:31;;;;;;;11.13;9.77;;;;;;;1.46;90.25;102459.09;5035455;28;20201;-83
2023/01/25 06:33:59;;;;;;;10.30;8.57;;;;;;;1.44;89.81;102464.13;5036324;28;20642;-83
2023/01/25 06:36:25;;;;;;;7.90;7.10;;;;;;;1.15;90.14;102475.50;5036175;28;20669;-82
2023/01/25 06:38:52;;;;;;;9.17;7.63;;;;;;;0.72;90.65;102475.81;5028002;28;20233;-83
2023/01/25 06:41:21;;;;;;;11.33;8.03;;;;;;;0.33;92.97;102422.31;5035320;28;20586;-83
2023/01/25 06:43:50;;;;;;;9.33;8.40;;;;;;;0.62;93.77;102379.34;5035731;28;20681;-84
2023/01/25 06:46:17;;;;;;;10.30;8.87;;;;;;;0.86;94.07;102358.28;5036331;28;20210;-83
2023/01/25 06:48:43;;;;;;;12.20;10.50;;;;;;;1.03;92.84;102361.72;5037525;28;20206;-82
2023/01/25 06:51:11;;;;;;;11.53;9.10;;;;;;;1.06;92.94;102362.75;5036908;28;20260;-82
2023/01/25 06:53:41;;;;;;;12.07;9.93;;;;;;;1.15;92.91;102367.47;5010531;28;20243;-81
2023/01/25 06:56:09;;;;;;;10.60;9.50;;;;;;;1.17;92.70;102371.91;5010161;28;20751;-80
2023/01/25 06:58:37;;;;;;;11.27;10.07;;;;;;;1.24;92.71;102385.94;5008005;28;20199;-80
2023/01/25 07:01:05;;;;;;;11.03;9.93;;;;;;;1.29;91.74;102388.75;5005552;28;20200;-79
2023/01/25 07:03:32;;;;;;;10.97;9.60;;;;;;;1.35;91.75;102391.66;5005946;28;20250;-82
2023/01/25 07:05:59;;;;;;;10.50;9.40;;;;;;;1.33;91.64;102404.44;5005320;28;20200;-82
2023/01/25 07:08:26;;;;;;;10.07;9.07;;;;;;;1.38;91.29;102397.81;5007584;28;20732;-82
2023/01/25 07:10:54;;;;;;;9.93;8.93;;;;;;;1.38;90.81;102404.66;5008944;28;20223;-82
2023/01/25 07:13:21;;;;;;;11.87;9.87;;;;;;;1.37;90.79;102411.50;5005471;28;20227;-82
2023/01/25 07:15:54;;;;;;;10.33;9.33;;;;;;;1.39;91.45;102415.03;5006508;28;20244;-84
2023/01/25 07:18:20;;;;;;;10.13;9.10;;;;;;;1.35;91.47;102423.41;5005463;28;20763;-82
2023/01/25 07:20:46;;;;;;;11.33;9.77;;;;;;;1.33;91.33;102427.59;5006936;28;20208;-81
2023/01/25 07:23:13;;;;;;;12.23;9.93;;;;;;;1.36;90.80;102425.16;5004736;28;20223;-82
2023/01/25 07:25:43;;;;;;;11.87;10.37;;;;;;;1.38;91.55;102413.25;5004690;28;20200;-82
2023/01/25 07:28:09;;;;;;;12.37;10.80;;;;;;;1.34;91.31;102407.88;5005532;28;20199;-81
2023/01/25 07:30:36;;;;;;;12.93;10.53;;;;;;;1.31;91.86;102413.75;5008167;28;20199;-81
2023/01/25 07:33:03;;;;;;;12.73;11.43;;;;;;;1.31;92.18;102394.84;5005884;28;20259;-81
2023/01/25 07:35:31;;;;;;;12.13;10.90;;;;;;;1.36;92.36;102389.13;5004554;28;20195;-82
2023/01/25 07:37:57;;;;;;;15.30;10.10;;;;;;;1.38;91.58;102396.94;5007491;28;20669;-81
2023/01/25 07:40:24;;;;;;;13.83;11.40;;;;;;;1.42;91.94;102397.97;5008389;28;20729;-81
2023/01/25 07:42:50;;;;;;;12.17;10.63;;;;;;;1.47;91.25;102402.56;5008690;28;20302;-81
2023/01/25 07:45:17;;;;;;;12.20;10.53;;;;;;;1.33;90.80;102416.41;5005853;28;20215;-82
2023/01/25 07:47:43;;;;;;;12.30;9.87;;;;;;;1.10;92.67;102402.38;5008505;28;20195;-81
2023/01/25 07:50:12;;;;;;;12.30;10.93;;;;;;;1.06;93.58;102367.91;5008116;28;20208;-82
2023/01/25 07:52:38;;;;;;;16.60;12.53;;;;;;;1.21;93.59;102364.31;5004363;28;20246;-82
2023/01/25 07:55:05;;;;;;;13.53;9.70;;;;;;;0.93;93.45;102361.25;5009151;28;20204;-79
2023/01/25 07:57:31;;;;;;;16.47;11.43;;;;;;;0.37;95.88;102326.63;5006697;28;20199;-81
2023/01/25 07:59:58;;;;;;;15.37;10.97;;;;;;;0.30;97.11;102283.47;5006557;28;20748;-81
2023/01/25 08:02:24;;;;;;;16.03;12.13;;;;;;;0.36;98.04;102250.38;5010607;28;20220;-82
2023/01/25 08:04:51;;;;;;;13.80;11.50;;;;;;;0.34;98.55;102230.56;5006002;28;20218;-81
2023/01/25 08:07:19;;;;;;;15.77;12.07;;;;;;;0.56;98.90;102215.44;5007824;28;20287;-83
2023/01/25 08:09:45;;;;;;;16.00;12.47;;;;;;;0.71;98.56;102217.88;5010129;28;20202;-81
2023/01/25 08:12:11;;;;;;;15.90;11.40;;;;;;;0.79;98.15;102223.41;5011512;28;20716;-82
2023/01/25 08:14:38;;;;;;;16.30;12.43;;;;;;;0.80;97.21;102230.31;5010394;28;20222;-83
2023/01/25 08:17:04;;;;;;;13.07;11.00;;;;;;;0.80;96.60;102243.19;5005948;28;20258;-82
2023/01/25 08:19:30;;;;;;;17.97;11.53;;;;;;;0.91;97.00;102247.19;5008157;28;20200;-81
2023/01/25 08:21:57;;;;;;;14.73;12.10;;;;;;;0.98;96.31;102250.91;5003969;28;20722;-81
2023/01/25 08:24:24;;;;;;;14.23;11.37;;;;;;;0.97;96.01;102254.28;5007037;28;20222;-81
2023/01/25 08:26:51;;;;;;;14.47;10.30;;;;;;;0.99;95.82;102269.00;5005416;28;20216;-82
2023/01/25 08:29:17;;;;;;;13.17;10.73;;;;;;;0.29;97.68;102250.84;5007043;28;20204;-82
2023/01/25 08:31:44;;;;;;;15.33;13.53;;;;;;;0.39;97.98;102226.53;5003606;28;20436;-81
2023/01/25 08:34:10;;;;;;;16.80;15.23;;;;;;;0.69;98.73;102209.22;5003723;28;20438;-82
2023/01/25 08:36:37;;;;;;;16.23;13.10;;;;;;;0.92;98.50;102201.78;5006536;28;20260;-82
2023/01/25 08:39:06;;;;;;;15.23;12.57;;;;;;;1.07;97.59;102210.25;5006468;28;20207;-82
2023/01/25 08:41:34;;;;;;;17.47;11.37;;;;;;;1.13;97.22;102222.50;5008458;28;20210;-80
2023/01/25 08:44:01;;;;;;;11.43;10.20;;;;;;;1.19;95.94;102238.25;5002573;28;20223;-81
2023/01/25 08:46:29;;;;;;;12.83;11.53;;;;;;;1.22;95.39;102252.94;5002855;28;20199;-81
2023/01/25 08:48:56;;;;;;;18.57;13.00;;;;;;;1.32;94.78;102270.56;5004520;28;20626;-81
2023/01/25 08:51:23;;;;;;;15.83;11.77;;;;;;;1.26;93.59;102293.44;5001962;28;20601;-79
2023/01/25 08:53:50;;;;;;;11.47;10.23;;;;;;;0.84;95.36;102293.06;5002427;28;20787;-81
2023/01/25 08:56:17;;;;;;;10.43;9.07;;;;;;;0.82;95.48;102286.97;5001788;28;20204;-80
2023/01/25 08:58:46;;;;;;;10.57;9.47;;;;;;;0.62;95.70;102275.66;5008187;28;20194;-80
2023/01/25 09:01:14;;;;;;;11.53;9.97;;;;;;;0.55;96.34;102259.03;5003555;28;20263;-81
2023/01/25 09:03:42;;;;;;;10.77;9.57;;;;;;;0.32;97.12;102242.44;5002763;28;20243;-81
2023/01/25 09:06:10;;;;;;;10.30;9.30;;;;;;;0.57;97.10;102224.91;5004244;28;20266;-83
2023/01/25 09:08:38;;;;;;;9.97;8.73;;;;;;;0.62;96.45;102221.69;5010572;28;20369;-80
2023/01/25 09:11:06;;;;;;;15.73;10.50;;;;;;;0.47;96.68;102220.09;5009875;28;20195;-82
2023/01/25 09:13:33;;;;;;;10.60;9.07;;;;;;;0.66;96.89;102224.50;5006503;28;20214;-82
2023/01/25 09:16:02;;;;;;;10.97;9.87;;;;;;;0.80;96.84;102227.75;5004469;28;20683;-82
2023/01/25 09:18:29;;;;;;;10.43;9.33;;;;;;;0.88;95.96;102235.84;5005647;28;20199;-82
2023/01/25 09:20:56;;;;;;;10.37;8.67;;;;;;;0.89;95.60;102247.88;5004838;28;20207;-81
2023/01/25 09:23:22;;;;;;;11.35;10.15;;;;;;;0.96;95.28;102252.53;5003989;28;20487;-84
2023/01/25 09:25:49;;;;;;;9.83;8.60;;;;;;;0.50;95.82;102265.63;5007276;28;20225;-81
2023/01/25 09:28:15;;;;;;;11.10;9.33;;;;;;;0.20;97.36;102232.44;5014036;28;20755;-82
2023/01/25 09:30:42;;;;;;;10.00;8.70;;;;;;;0.45;98.30;102211.44;5007241;28;20200;-81
2023/01/25 09:33:13;;;;;;;10.57;8.93;;;;;;;0.37;98.35;102199.88;5004878;28;20655;-82
2023/01/25 09:35:47;;;;;;;12.20;10.77;;;;;;;0.65;97.62;102196.16;5006672;28;20205;-82
2023/01/25 09:38:13;;;;;;;11.50;10.23;;;;;;;0.79;97.70;102192.56;5006718;28;20207;-83
2023/01/25 09:40:46;;;;;;;11.53;10.27;;;;;;;0.91;96.84;102193.19;5012286;28;20255;-82
2023/01/25 09:43:22;;;;;;;10.80;9.53;;;;;;;1.01;97.20;102194.50;5004999;28;20243;-83
2023/01/25 09:45:48;;;;;;;11.57;8.90;;;;;;;0.90;96.29;102216.25;5005452;28;20219;-82
2023/01/25 09:48:27;;;;;;;12.07;9.10;;;;;;;0.94;96.57;102218.16;5003320;28;20249;-82
2023/01/25 09:51:15;;;;;;;10.37;9.27;;;;;;;0.75;96.17;102208.63;5004244;28;20199;-82
2023/01/25 09:53:48;;;;;;;14.17;9.70;;;;;;;0.54;96.91;102205.91;5003724;28;20226;-82
2023/01/25 09:56:19;;;;;;;10.70;9.67;;;;;;;0.59;97.41;102184.78;5003646;28;20247;-82
2023/01/25 09:58:50;;;;;;;10.97;9.67;;;;;;;0.66;96.93;102178.25;5004465;28;20263;-81
2023/01/25 10:01:24;;;;;;;11.30;9.87;;;;;;;0.86;96.89;102170.63;5002576;28;20253;-81
2023/01/25 10:03:55;;;;;;;10.33;9.30;;;;;;;0.75;97.02;102163.28;5004173;28;20223;-80
2023/01/25 10:06:26;;;;;;;11.10;9.90;;;;;;;0.84;97.04;102165.41;5004121;28;20249;-82
2023/01/25 10:09:00;;;;;;;10.63;9.43;;;;;;;0.92;96.85;102170.91;5007807;28;20661;-81
2023/01/25 10:11:30;;;;;;;11.20;10.10;;;;;;;1.12;96.09;102177.91;5008614;28;20199;-82
2023/01/25 10:13:58;;;;;;;10.93;9.80;;;;;;;1.08;95.86;102191.41;5006419;28;20223;-81
2023/01/25 10:16:30;;;;;;;11.10;9.93;;;;;;;0.88;96.38;102184.44;5004103;28;20199;-81
2023/01/25 10:19:11;;;;;;;13.53;10.60;;;;;;;0.31;97.07;102186.72;5002558;28;20259;-81
2023/01/25 10:21:40;;;;;;;15.80;11.00;;;;;;;0.26;98.79;102145.41;5001441;28;20911;-81
2023/01/25 10:24:23;;;;;;;12.50;9.80;;;;;;;0.10;99.60;102112.03;5004483;28;20205;-82
2023/01/25 10:26:55;;;;;;;13.77;10.33;;;;;;;0.39;100.00;102086.13;5004233;28;20196;-82
2023/01/25 10:29:23;;;;;;;13.93;9.57;;;;;;;0.31;99.88;102072.03;5004397;28;20278;-82
2023/01/25 10:31:52;;;;;;;11.33;9.40;;;;;;;0.37;99.66;102067.19;5003135;28;20249;-83
2023/01/25 10:34:21;;;;;;;10.60;9.57;;;;;;;0.66;100.00;102066.88;5004425;28;20204;-82
2023/01/25 10:36:53;;;;;;;10.50;8.87;;;;;;;0.49;98.73;102078.88;5004629;28;20618;-82
2023/01/25 10:39:20;;;;;;;9.90;8.87;;;;;;;0.63;98.07;102080.44;5007098;28;20234;-82
2023/01/25 10:41:50;;;;;;;9.43;8.43;;;;;;;0.55;97.92;102098.03;5009702;28;20203;-80
2023/01/25 10:44:23;;;;;;;11.80;10.00;;;;;;;0.71;98.05;102097.09;5006868;28;20620;-81
2023/01/25 10:46:56;;;;;;;11.00;9.87;;;;;;;0.84;97.27;102095.13;5008141;28;20257;-81
2023/01/25 10:49:28;;;;;;;10.43;9.33;;;;;;;0.97;97.30;102089.72;5002770;28;20589;-83
2023/01/25 10:51:55;;;;;;;9.57;8.57;;;;;;;1.09;96.18;102102.28;5004270;28;20216;-81
2023/01/25 10:54:22;;;;;;;10.50;9.50;;;;;;;1.11;96.34;102111.84;5003178;28;20226;-83
2023/01/25 10:56:49;;;;;;;9.43;8.53;;;;;;;1.16;95.22;102120.66;5002949;28;20204;-80
2023/01/25 10:59:20;;;;;;;9.97;8.73;;;;;;;0.98;94.74;102136.09;5002461;28;20230;-82
2023/01/25 11:01:46;;;;;;;8.90;8.00;;;;;;;0.83;94.83;102149.91;5002805;28;20592;-82
2023/01/25 11:04:29;;;;;;;8.87;7.97;;;;;;;0.67;95.13;102154.28;5003120;28;20254;-82
2023/01/25 11:06:56;;;;;;;9.40;8.40;;;;;;;0.91;94.88;102146.91;5004743;28;20230;-81
2023/01/25 11:09:34;;;;;;;9.23;8.23;;;;;;;0.93;95.10;102137.59;5006069;28;20257;-82
2023/01/25 11:12:03;;;;;;;8.57;7.67;;;;;;;0.98;94.99;102136.09;5029883;28;20225;-81
2023/01/25 11:14:31;;;;;;;8.97;8.10;;;;;;;1.10;94.85;102137.50;5040267;28;20782;-80
2023/01/25 11:17:00;;;;;;;10.43;8.10;;;;;;;1.22;94.75;102137.19;5039778;28;20245;-80
2023/01/25 11:19:33;;;;;;;8.90;8.00;;;;;;;0.95;94.30;102151.38;5039694;28;20202;-80
2023/01/25 11:22:01;;;;;;;7.67;6.90;;;;;;;0.92;94.35;102150.34;5040051;28;20232;-80
2023/01/25 11:24:28;;;;;;;9.07;8.17;;;;;;;1.16;94.22;102143.78;5038360;28;20209;-82
2023/01/25 11:27:28;;;;;;;9.43;8.53;;;;;;;1.41;94.56;102146.63;5037843;28;20208;-80
2023/01/25 11:30:09;;;;;;;10.37;9.27;;;;;;;1.41;94.17;102144.03;4976337;28;20237;-79